sensor_id;sensor_type;location;lat;lon;timestamp;P1;durP1;ratioP1;P2;durP2;ratioP2
20443;SDS011;10381;53.730;10.010;2024-01-30T00:00:28;17.30;;;9.10;;
20443;SDS011;10381;53.730;10.010;2024-01-30T00:04:29;18.00;;;9.00;;
20443;SDS011;10381;53.730;10.010;2024-01-30T00:08:29;17.40;;;8.97;;
20443;SDS011;10381;53.730;10.010;2024-01-30T00:12:29;14.60;;;9.47;;
20443;SDS011;10381;53.730;10.010;2024-01-30T00:16:29;17.47;;;9.60;;
20443;SDS011;10381;53.730;10.010;2024-01-30T00:20:30;21.33;;;10.15;;
20443;SDS011;10381;53.730;10.010;2024-01-30T00:24:30;20.63;;;11.07;;
20443;SDS011;10381;53.730;10.010;2024-01-30T00:28:30;21.97;;;10.13;;
20443;SDS011;10381;53.730;10.010;2024-01-30T00:32:31;22.85;;;10.57;;
20443;SDS011;10381;53.730;10.010;2024-01-30T00:36:31;18.45;;;9.90;;
20443;SDS011;10381;53.730;10.010;2024-01-30T00:40:31;23.95;;;10.38;;
20443;SDS011;10381;53.730;10.010;2024-01-30T00:44:34;23.80;;;10.27;;
20443;SDS011;10381;53.730;10.010;2024-01-30T00:48:35;19.17;;;10.25;;
20443;SDS011;10381;53.730;10.010;2024-01-30T00:52:35;17.33;;;8.40;;
20443;SDS011;10381;53.730;10.010;2024-01-30T00:56:36;27.58;;;10.07;;
20443;SDS011;10381;53.730;10.010;2024-01-30T01:00:36;14.10;;;8.90;;
20443;SDS011;10381;53.730;10.010;2024-01-30T01:04:37;16.15;;;8.73;;
20443;SDS011;10381;53.730;10.010;2024-01-30T01:08:37;17.13;;;9.13;;
20443;SDS011;10381;53.730;10.010;2024-01-30T01:12:37;19.20;;;8.60;;
20443;SDS011;10381;53.730;10.010;2024-01-30T01:16:37;19.37;;;9.70;;
20443;SDS011;10381;53.730;10.010;2024-01-30T01:20:38;29.63;;;9.90;;
20443;SDS011;10381;53.730;10.010;2024-01-30T01:24:38;18.57;;;9.73;;
20443;SDS011;10381;53.730;10.010;2024-01-30T01:28:41;18.65;;;9.68;;
20443;SDS011;10381;53.730;10.010;2024-01-30T01:32:41;21.00;;;11.55;;
20443;SDS011;10381;53.730;10.010;2024-01-30T01:36:49;22.75;;;9.75;;
20443;SDS011;10381;53.730;10.010;2024-01-30T01:40:49;22.15;;;9.20;;
20443;SDS011;10381;53.730;10.010;2024-01-30T01:44:51;21.38;;;9.18;;
20443;SDS011;10381;53.730;10.010;2024-01-30T01:48:51;17.13;;;9.67;;
20443;SDS011;10381;53.730;10.010;2024-01-30T01:52:51;18.00;;;10.15;;
20443;SDS011;10381;53.730;10.010;2024-01-30T01:56:52;17.73;;;9.80;;
20443;SDS011;10381;53.730;10.010;2024-01-30T02:00:53;29.27;;;11.15;;
20443;SDS011;10381;53.730;10.010;2024-01-30T02:13:16;18.25;;;10.25;;
20443;SDS011;10381;53.730;10.010;2024-01-30T02:17:16;16.87;;;9.60;;
20443;SDS011;10381;53.730;10.010;2024-01-30T02:21:17;20.05;;;10.38;;
20443;SDS011;10381;53.730;10.010;2024-01-30T02:25:18;17.48;;;10.30;;
20443;SDS011;10381;53.730;10.010;2024-01-30T02:29:18;18.92;;;10.02;;
20443;SDS011;10381;53.730;10.010;2024-01-30T02:33:18;21.47;;;11.80;;
20443;SDS011;10381;53.730;10.010;2024-01-30T02:37:19;35.05;;;11.88;;
20443;SDS011;10381;53.730;10.010;2024-01-30T02:41:19;21.83;;;12.87;;
20443;SDS011;10381;53.730;10.010;2024-01-30T02:45:20;17.98;;;11.23;;
20443;SDS011;10381;53.730;10.010;2024-01-30T02:49:20;20.60;;;12.67;;
20443;SDS011;10381;53.730;10.010;2024-01-30T02:53:21;22.20;;;11.70;;
20443;SDS011;10381;53.730;10.010;2024-01-30T02:57:21;19.20;;;12.47;;
20443;SDS011;10381;53.730;10.010;2024-01-30T03:01:21;20.33;;;12.27;;
20443;SDS011;10381;53.730;10.010;2024-01-30T03:05:23;24.67;;;12.52;;
20443;SDS011;10381;53.730;10.010;2024-01-30T03:09:23;22.05;;;13.90;;
20443;SDS011;10381;53.730;10.010;2024-01-30T03:13:23;21.03;;;12.37;;
20443;SDS011;10381;53.730;10.010;2024-01-30T03:17:25;15.30;;;11.10;;
20443;SDS011;10381;53.730;10.010;2024-01-30T03:21:25;20.50;;;11.60;;
20443;SDS011;10381;53.730;10.010;2024-01-30T03:25:26;18.63;;;11.40;;
20443;SDS011;10381;53.730;10.010;2024-01-30T03:29:27;19.90;;;11.88;;
20443;SDS011;10381;53.730;10.010;2024-01-30T03:33:27;13.83;;;10.10;;
20443;SDS011;10381;53.730;10.010;2024-01-30T03:37:28;20.40;;;11.43;;
20443;SDS011;10381;53.730;10.010;2024-01-30T03:41:28;20.25;;;11.55;;
20443;SDS011;10381;53.730;10.010;2024-01-30T03:45:28;27.60;;;11.57;;
20443;SDS011;10381;53.730;10.010;2024-01-30T03:49:29;21.07;;;10.63;;
20443;SDS011;10381;53.730;10.010;2024-01-30T03:53:29;19.37;;;10.23;;
20443;SDS011;10381;53.730;10.010;2024-01-30T03:57:29;17.63;;;11.00;;
20443;SDS011;10381;53.730;10.010;2024-01-30T04:01:30;15.07;;;10.70;;
20443;SDS011;10381;53.730;10.010;2024-01-30T04:05:32;20.33;;;11.03;;
20443;SDS011;10381;53.730;10.010;2024-01-30T04:09:33;16.00;;;9.40;;
20443;SDS011;10381;53.730;10.010;2024-01-30T04:13:33;20.80;;;11.43;;
20443;SDS011;10381;53.730;10.010;2024-01-30T04:17:34;23.48;;;11.27;;
20443;SDS011;10381;53.730;10.010;2024-01-30T04:21:34;21.25;;;10.05;;
20443;SDS011;10381;53.730;10.010;2024-01-30T04:25:35;17.90;;;10.73;;
20443;SDS011;10381;53.730;10.010;2024-01-30T04:29:36;17.30;;;9.90;;
20443;SDS011;10381;53.730;10.010;2024-01-30T04:33:36;13.50;;;9.10;;
20443;SDS011;10381;53.730;10.010;2024-01-30T04:37:37;27.05;;;11.60;;
20443;SDS011;10381;53.730;10.010;2024-01-30T04:41:37;22.70;;;10.57;;
20443;SDS011;10381;53.730;10.010;2024-01-30T04:45:37;19.20;;;10.60;;
20443;SDS011;10381;53.730;10.010;2024-01-30T04:49:38;18.73;;;10.70;;
20443;SDS011;10381;53.730;10.010;2024-01-30T04:53:39;19.80;;;10.05;;
20443;SDS011;10381;53.730;10.010;2024-01-30T04:57:40;18.40;;;9.70;;
20443;SDS011;10381;53.730;10.010;2024-01-30T05:01:40;20.67;;;10.50;;
20443;SDS011;10381;53.730;10.010;2024-01-30T05:05:40;22.57;;;9.37;;
20443;SDS011;10381;53.730;10.010;2024-01-30T05:09:41;24.80;;;11.77;;
20443;SDS011;10381;53.730;10.010;2024-01-30T05:13:41;17.92;;;10.57;;
20443;SDS011;10381;53.730;10.010;2024-01-30T05:17:41;17.55;;;9.60;;
20443;SDS011;10381;53.730;10.010;2024-01-30T05:21:42;26.53;;;9.63;;
20443;SDS011;10381;53.730;10.010;2024-01-30T05:25:42;18.98;;;9.25;;
20443;SDS011;10381;53.730;10.010;2024-01-30T05:29:42;23.90;;;11.40;;
20443;SDS011;10381;53.730;10.010;2024-01-30T05:33:43;16.97;;;9.60;;
20443;SDS011;10381;53.730;10.010;2024-01-30T05:37:43;19.23;;;11.27;;
20443;SDS011;10381;53.730;10.010;2024-01-30T05:41:43;28.30;;;13.07;;
20443;SDS011;10381;53.730;10.010;2024-01-30T05:45:43;24.77;;;12.97;;
20443;SDS011;10381;53.730;10.010;2024-01-30T05:49:44;31.20;;;13.18;;
20443;SDS011;10381;53.730;10.010;2024-01-30T05:53:44;21.33;;;12.27;;
20443;SDS011;10381;53.730;10.010;2024-01-30T05:57:45;25.02;;;12.77;;
20443;SDS011;10381;53.730;10.010;2024-01-30T06:01:45;29.50;;;16.20;;
20443;SDS011;10381;53.730;10.010;2024-01-30T06:05:47;25.70;;;16.30;;
20443;SDS011;10381;53.730;10.010;2024-01-30T06:09:47;24.50;;;14.53;;
20443;SDS011;10381;53.730;10.010;2024-01-30T06:13:47;30.27;;;15.65;;
20443;SDS011;10381;53.730;10.010;2024-01-30T06:17:48;19.10;;;13.93;;
20443;SDS011;10381;53.730;10.010;2024-01-30T06:21:48;25.10;;;15.88;;
20443;SDS011;10381;53.730;10.010;2024-01-30T06:25:49;21.73;;;13.60;;
20443;SDS011;10381;53.730;10.010;2024-01-30T06:29:50;27.80;;;14.32;;
20443;SDS011;10381;53.730;10.010;2024-01-30T06:33:50;23.57;;;14.47;;
20443;SDS011;10381;53.730;10.010;2024-01-30T06:37:50;32.35;;;15.13;;
20443;SDS011;10381;53.730;10.010;2024-01-30T06:41:51;30.92;;;15.45;;
20443;SDS011;10381;53.730;10.010;2024-01-30T06:45:51;39.33;;;16.50;;
20443;SDS011;10381;53.730;10.010;2024-01-30T06:49:52;31.35;;;15.82;;
20443;SDS011;10381;53.730;10.010;2024-01-30T06:53:52;26.08;;;14.43;;
20443;SDS011;10381;53.730;10.010;2024-01-30T06:57:52;24.70;;;13.63;;
20443;SDS011;10381;53.730;10.010;2024-01-30T07:01:53;24.57;;;15.00;;
20443;SDS011;10381;53.730;10.010;2024-01-30T07:05:53;30.58;;;15.98;;
20443;SDS011;10381;53.730;10.010;2024-01-30T07:09:54;22.65;;;14.05;;
20443;SDS011;10381;53.730;10.010;2024-01-30T07:13:56;30.13;;;15.75;;
20443;SDS011;10381;53.730;10.010;2024-01-30T07:17:56;25.27;;;14.47;;
20443;SDS011;10381;53.730;10.010;2024-01-30T07:21:57;26.27;;;15.27;;
20443;SDS011;10381;53.730;10.010;2024-01-30T07:25:57;25.98;;;15.55;;
20443;SDS011;10381;53.730;10.010;2024-01-30T07:29:57;32.47;;;15.57;;
20443;SDS011;10381;53.730;10.010;2024-01-30T07:33:58;35.00;;;15.43;;
20443;SDS011;10381;53.730;10.010;2024-01-30T07:37:58;29.60;;;14.98;;
20443;SDS011;10381;53.730;10.010;2024-01-30T07:41:58;28.10;;;15.77;;
20443;SDS011;10381;53.730;10.010;2024-01-30T07:45:59;27.00;;;15.95;;
20443;SDS011;10381;53.730;10.010;2024-01-30T07:50:00;31.40;;;17.98;;
20443;SDS011;10381;53.730;10.010;2024-01-30T07:54:01;34.05;;;18.42;;
20443;SDS011;10381;53.730;10.010;2024-01-30T07:58:01;33.95;;;16.92;;
20443;SDS011;10381;53.730;10.010;2024-01-30T08:02:02;35.65;;;17.77;;
20443;SDS011;10381;53.730;10.010;2024-01-30T08:06:02;35.80;;;17.80;;
20443;SDS011;10381;53.730;10.010;2024-01-30T08:10:03;29.45;;;17.40;;
20443;SDS011;10381;53.730;10.010;2024-01-30T08:14:03;35.00;;;18.92;;
20443;SDS011;10381;53.730;10.010;2024-01-30T08:18:04;24.90;;;17.90;;
20443;SDS011;10381;53.730;10.010;2024-01-30T08:22:05;35.47;;;18.95;;
20443;SDS011;10381;53.730;10.010;2024-01-30T08:26:06;40.15;;;21.63;;
20443;SDS011;10381;53.730;10.010;2024-01-30T08:30:06;29.80;;;19.03;;
20443;SDS011;10381;53.730;10.010;2024-01-30T08:34:07;44.17;;;20.10;;
20443;SDS011;10381;53.730;10.010;2024-01-30T08:38:07;40.30;;;22.67;;
20443;SDS011;10381;53.730;10.010;2024-01-30T08:42:07;34.80;;;22.20;;
20443;SDS011;10381;53.730;10.010;2024-01-30T08:46:08;46.63;;;22.23;;
20443;SDS011;10381;53.730;10.010;2024-01-30T08:50:08;38.57;;;22.60;;
20443;SDS011;10381;53.730;10.010;2024-01-30T08:54:09;42.72;;;23.55;;
20443;SDS011;10381;53.730;10.010;2024-01-30T08:58:10;40.17;;;21.17;;
20443;SDS011;10381;53.730;10.010;2024-01-30T09:02:10;36.28;;;22.67;;
20443;SDS011;10381;53.730;10.010;2024-01-30T09:06:12;31.75;;;20.83;;
20443;SDS011;10381;53.730;10.010;2024-01-30T09:10:13;30.42;;;20.02;;
20443;SDS011;10381;53.730;10.010;2024-01-30T09:14:13;34.67;;;21.60;;
20443;SDS011;10381;53.730;10.010;2024-01-30T09:18:14;41.78;;;19.75;;
20443;SDS011;10381;53.730;10.010;2024-01-30T09:22:14;48.93;;;23.37;;
20443;SDS011;10381;53.730;10.010;2024-01-30T09:26:14;38.50;;;20.38;;
20443;SDS011;10381;53.730;10.010;2024-01-30T09:30:15;35.77;;;18.90;;
20443;SDS011;10381;53.730;10.010;2024-01-30T09:34:15;32.38;;;19.30;;
20443;SDS011;10381;53.730;10.010;2024-01-30T09:38:15;43.58;;;20.35;;
20443;SDS011;10381;53.730;10.010;2024-01-30T09:46:31;49.85;;;19.13;;
20443;SDS011;10381;53.730;10.010;2024-01-30T09:50:33;33.15;;;18.25;;
20443;SDS011;10381;53.730;10.010;2024-01-30T09:54:36;33.20;;;16.95;;
20443;SDS011;10381;53.730;10.010;2024-01-30T09:58:37;30.60;;;16.13;;
20443;SDS011;10381;53.730;10.010;2024-01-30T10:02:39;33.25;;;16.63;;
20443;SDS011;10381;53.730;10.010;2024-01-30T10:06:40;35.33;;;15.45;;
20443;SDS011;10381;53.730;10.010;2024-01-30T10:10:41;32.28;;;14.40;;
20443;SDS011;10381;53.730;10.010;2024-01-30T10:14:45;27.75;;;14.07;;
20443;SDS011;10381;53.730;10.010;2024-01-30T10:18:45;31.58;;;14.32;;
20443;SDS011;10381;53.730;10.010;2024-01-30T10:22:46;34.33;;;12.18;;
20443;SDS011;10381;53.730;10.010;2024-01-30T10:26:46;23.92;;;12.88;;
20443;SDS011;10381;53.730;10.010;2024-01-30T10:30:47;24.25;;;13.98;;
20443;SDS011;10381;53.730;10.010;2024-01-30T10:34:57;24.25;;;13.30;;
20443;SDS011;10381;53.730;10.010;2024-01-30T10:38:59;31.88;;;12.82;;
20443;SDS011;10381;53.730;10.010;2024-01-30T10:42:59;29.20;;;14.20;;
20443;SDS011;10381;53.730;10.010;2024-01-30T10:47:03;25.27;;;12.88;;
20443;SDS011;10381;53.730;10.010;2024-01-30T10:51:08;19.63;;;12.50;;
20443;SDS011;10381;53.730;10.010;2024-01-30T10:55:09;30.20;;;14.70;;
20443;SDS011;10381;53.730;10.010;2024-01-30T10:59:10;26.23;;;14.10;;
20443;SDS011;10381;53.730;10.010;2024-01-30T11:03:13;31.65;;;14.27;;
20443;SDS011;10381;53.730;10.010;2024-01-30T11:07:15;23.90;;;13.32;;
20443;SDS011;10381;53.730;10.010;2024-01-30T11:11:20;28.35;;;13.43;;
20443;SDS011;10381;53.730;10.010;2024-01-30T11:15:21;21.27;;;13.23;;
20443;SDS011;10381;53.730;10.010;2024-01-30T11:19:27;25.52;;;12.20;;
20443;SDS011;10381;53.730;10.010;2024-01-30T11:23:33;23.27;;;13.25;;
20443;SDS011;10381;53.730;10.010;2024-01-30T11:27:34;20.27;;;12.52;;
20443;SDS011;10381;53.730;10.010;2024-01-30T11:31:34;26.30;;;14.30;;
20443;SDS011;10381;53.730;10.010;2024-01-30T11:35:36;20.02;;;11.73;;
20443;SDS011;10381;53.730;10.010;2024-01-30T11:39:37;31.10;;;12.27;;
20443;SDS011;10381;53.730;10.010;2024-01-30T11:43:37;27.30;;;14.25;;
20443;SDS011;10381;53.730;10.010;2024-01-30T11:47:38;25.42;;;12.55;;
20443;SDS011;10381;53.730;10.010;2024-01-30T11:51:39;31.85;;;13.35;;
20443;SDS011;10381;53.730;10.010;2024-01-30T11:55:39;24.10;;;12.98;;
20443;SDS011;10381;53.730;10.010;2024-01-30T11:59:39;29.75;;;13.25;;
20443;SDS011;10381;53.730;10.010;2024-01-30T12:03:40;25.23;;;13.80;;
20443;SDS011;10381;53.730;10.010;2024-01-30T12:07:40;20.95;;;12.35;;
20443;SDS011;10381;53.730;10.010;2024-01-30T12:11:44;35.00;;;12.75;;
20443;SDS011;10381;53.730;10.010;2024-01-30T12:15:48;45.28;;;14.00;;
20443;SDS011;10381;53.730;10.010;2024-01-30T12:19:48;24.38;;;13.38;;
20443;SDS011;10381;53.730;10.010;2024-01-30T12:23:48;20.87;;;13.00;;
20443;SDS011;10381;53.730;10.010;2024-01-30T12:27:49;28.30;;;12.10;;
20443;SDS011;10381;53.730;10.010;2024-01-30T12:31:53;118.43;;;45.13;;
20443;SDS011;10381;53.730;10.010;2024-01-30T12:35:55;27.02;;;13.68;;
20443;SDS011;10381;53.730;10.010;2024-01-30T12:39:56;24.08;;;13.23;;
20443;SDS011;10381;53.730;10.010;2024-01-30T12:43:57;25.13;;;12.10;;
20443;SDS011;10381;53.730;10.010;2024-01-30T12:47:57;28.40;;;11.73;;
20443;SDS011;10381;53.730;10.010;2024-01-30T12:51:58;19.25;;;11.80;;
20443;SDS011;10381;53.730;10.010;2024-01-30T12:55:58;33.20;;;13.45;;
20443;SDS011;10381;53.730;10.010;2024-01-30T12:59:58;22.60;;;11.10;;
20443;SDS011;10381;53.730;10.010;2024-01-30T13:03:59;24.40;;;12.23;;
20443;SDS011;10381;53.730;10.010;2024-01-30T13:07:59;22.05;;;13.02;;
20443;SDS011;10381;53.730;10.010;2024-01-30T13:11:59;23.83;;;10.80;;
20443;SDS011;10381;53.730;10.010;2024-01-30T13:16:00;22.02;;;11.65;;
20443;SDS011;10381;53.730;10.010;2024-01-30T13:20:00;17.70;;;10.43;;
20443;SDS011;10381;53.730;10.010;2024-01-30T13:24:00;21.73;;;10.82;;
20443;SDS011;10381;53.730;10.010;2024-01-30T13:28:01;20.53;;;9.97;;
20443;SDS011;10381;53.730;10.010;2024-01-30T13:32:01;25.10;;;12.02;;
20443;SDS011;10381;53.730;10.010;2024-01-30T13:36:01;19.83;;;9.50;;
20443;SDS011;10381;53.730;10.010;2024-01-30T13:40:03;25.67;;;11.77;;
20443;SDS011;10381;53.730;10.010;2024-01-30T13:44:06;21.52;;;9.43;;
20443;SDS011;10381;53.730;10.010;2024-01-30T13:48:07;26.13;;;10.73;;
20443;SDS011;10381;53.730;10.010;2024-01-30T13:52:07;19.33;;;9.88;;
20443;SDS011;10381;53.730;10.010;2024-01-30T13:56:08;32.20;;;10.13;;
20443;SDS011;10381;53.730;10.010;2024-01-30T14:00:08;21.10;;;10.37;;
20443;SDS011;10381;53.730;10.010;2024-01-30T14:04:09;31.88;;;10.13;;
20443;SDS011;10381;53.730;10.010;2024-01-30T14:08:10;22.60;;;9.98;;
20443;SDS011;10381;53.730;10.010;2024-01-30T14:12:11;21.58;;;10.55;;
20443;SDS011;10381;53.730;10.010;2024-01-30T14:16:11;24.35;;;9.75;;
20443;SDS011;10381;53.730;10.010;2024-01-30T14:20:11;28.30;;;10.67;;
20443;SDS011;10381;53.730;10.010;2024-01-30T14:24:12;20.83;;;8.63;;
20443;SDS011;10381;53.730;10.010;2024-01-30T14:28:12;20.03;;;9.57;;
20443;SDS011;10381;53.730;10.010;2024-01-30T14:32:12;27.17;;;9.63;;
20443;SDS011;10381;53.730;10.010;2024-01-30T14:36:13;20.17;;;9.05;;
20443;SDS011;10381;53.730;10.010;2024-01-30T14:40:14;24.63;;;10.13;;
20443;SDS011;10381;53.730;10.010;2024-01-30T14:44:14;20.90;;;10.55;;
20443;SDS011;10381;53.730;10.010;2024-01-30T14:48:15;24.85;;;9.10;;
20443;SDS011;10381;53.730;10.010;2024-01-30T14:52:15;23.73;;;9.75;;
20443;SDS011;10381;53.730;10.010;2024-01-30T14:56:15;17.07;;;8.87;;
20443;SDS011;10381;53.730;10.010;2024-01-30T15:00:16;27.55;;;10.75;;
20443;SDS011;10381;53.730;10.010;2024-01-30T15:04:17;25.33;;;10.52;;
20443;SDS011;10381;53.730;10.010;2024-01-30T15:08:17;24.67;;;10.32;;
20443;SDS011;10381;53.730;10.010;2024-01-30T15:12:17;28.97;;;10.90;;
20443;SDS011;10381;53.730;10.010;2024-01-30T15:16:18;22.98;;;9.75;;
20443;SDS011;10381;53.730;10.010;2024-01-30T15:20:20;24.90;;;9.97;;
20443;SDS011;10381;53.730;10.010;2024-01-30T15:24:31;22.38;;;9.80;;
20443;SDS011;10381;53.730;10.010;2024-01-30T15:28:35;23.60;;;11.47;;
20443;SDS011;10381;53.730;10.010;2024-01-30T15:32:37;27.50;;;11.55;;
20443;SDS011;10381;53.730;10.010;2024-01-30T15:36:37;21.37;;;10.37;;
20443;SDS011;10381;53.730;10.010;2024-01-30T15:40:38;16.67;;;9.10;;
20443;SDS011;10381;53.730;10.010;2024-01-30T15:44:38;21.33;;;9.37;;
20443;SDS011;10381;53.730;10.010;2024-01-30T15:48:38;30.23;;;10.23;;
20443;SDS011;10381;53.730;10.010;2024-01-30T15:52:39;25.38;;;9.45;;
20443;SDS011;10381;53.730;10.010;2024-01-30T15:56:40;20.27;;;9.33;;
20443;SDS011;10381;53.730;10.010;2024-01-30T16:00:40;28.83;;;10.45;;
20443;SDS011;10381;53.730;10.010;2024-01-30T16:04:41;20.63;;;9.87;;
20443;SDS011;10381;53.730;10.010;2024-01-30T16:08:41;18.83;;;10.07;;
20443;SDS011;10381;53.730;10.010;2024-01-30T16:12:42;30.02;;;10.80;;
20443;SDS011;10381;53.730;10.010;2024-01-30T16:16:45;25.17;;;10.65;;
20443;SDS011;10381;53.730;10.010;2024-01-30T16:20:45;23.23;;;10.60;;
20443;SDS011;10381;53.730;10.010;2024-01-30T16:24:46;23.45;;;10.00;;
20443;SDS011;10381;53.730;10.010;2024-01-30T16:28:47;23.58;;;10.00;;
20443;SDS011;10381;53.730;10.010;2024-01-30T16:32:47;23.00;;;10.07;;
20443;SDS011;10381;53.730;10.010;2024-01-30T16:36:47;19.37;;;9.13;;
20443;SDS011;10381;53.730;10.010;2024-01-30T16:40:47;27.53;;;9.93;;
20443;SDS011;10381;53.730;10.010;2024-01-30T16:44:52;19.38;;;9.25;;
20443;SDS011;10381;53.730;10.010;2024-01-30T16:48:52;21.57;;;9.63;;
20443;SDS011;10381;53.730;10.010;2024-01-30T16:52:52;20.93;;;9.77;;
20443;SDS011;10381;53.730;10.010;2024-01-30T16:56:52;18.20;;;10.40;;
20443;SDS011;10381;53.730;10.010;2024-01-30T17:00:53;24.85;;;10.32;;
20443;SDS011;10381;53.730;10.010;2024-01-30T17:04:53;16.50;;;10.10;;
20443;SDS011;10381;53.730;10.010;2024-01-30T17:08:54;24.40;;;10.43;;
20443;SDS011;10381;53.730;10.010;2024-01-30T17:12:55;23.80;;;9.95;;
20443;SDS011;10381;53.730;10.010;2024-01-30T17:16:56;30.45;;;10.75;;
20443;SDS011;10381;53.730;10.010;2024-01-30T17:20:56;29.88;;;11.50;;
20443;SDS011;10381;53.730;10.010;2024-01-30T17:24:57;26.10;;;12.10;;
20443;SDS011;10381;53.730;10.010;2024-01-30T17:28:57;24.90;;;10.90;;
20443;SDS011;10381;53.730;10.010;2024-01-30T17:32:57;22.77;;;12.07;;
20443;SDS011;10381;53.730;10.010;2024-01-30T17:37:01;28.42;;;13.88;;
20443;SDS011;10381;53.730;10.010;2024-01-30T17:41:01;53.23;;;14.77;;
20443;SDS011;10381;53.730;10.010;2024-01-30T17:45:02;22.50;;;11.93;;
20443;SDS011;10381;53.730;10.010;2024-01-30T17:49:02;25.58;;;12.88;;
20443;SDS011;10381;53.730;10.010;2024-01-30T17:53:04;63.65;;;23.33;;
20443;SDS011;10381;53.730;10.010;2024-01-30T17:57:04;50.42;;;19.90;;
20443;SDS011;10381;53.730;10.010;2024-01-30T18:01:05;22.83;;;10.50;;
20443;SDS011;10381;53.730;10.010;2024-01-30T18:05:06;19.65;;;9.90;;
20443;SDS011;10381;53.730;10.010;2024-01-30T18:09:09;18.80;;;9.18;;
20443;SDS011;10381;53.730;10.010;2024-01-30T18:13:09;12.90;;;7.83;;
20443;SDS011;10381;53.730;10.010;2024-01-30T18:17:13;11.15;;;7.40;;
20443;SDS011;10381;53.730;10.010;2024-01-30T18:21:13;15.10;;;6.90;;
20443;SDS011;10381;53.730;10.010;2024-01-30T18:25:15;10.20;;;6.68;;
20443;SDS011;10381;53.730;10.010;2024-01-30T18:29:15;15.40;;;7.30;;
20443;SDS011;10381;53.730;10.010;2024-01-30T18:33:15;12.57;;;7.63;;
20443;SDS011;10381;53.730;10.010;2024-01-30T18:37:16;8.70;;;5.70;;
20443;SDS011;10381;53.730;10.010;2024-01-30T18:41:16;17.77;;;7.13;;
20443;SDS011;10381;53.730;10.010;2024-01-30T18:45:17;11.48;;;7.10;;
20443;SDS011;10381;53.730;10.010;2024-01-30T18:49:20;12.75;;;6.28;;
20443;SDS011;10381;53.730;10.010;2024-01-30T18:53:20;13.37;;;6.50;;
20443;SDS011;10381;53.730;10.010;2024-01-30T18:57:20;9.67;;;6.40;;
20443;SDS011;10381;53.730;10.010;2024-01-30T19:01:21;11.05;;;6.18;;
20443;SDS011;10381;53.730;10.010;2024-01-30T19:05:21;17.33;;;7.13;;
20443;SDS011;10381;53.730;10.010;2024-01-30T19:09:21;17.03;;;6.47;;
20443;SDS011;10381;53.730;10.010;2024-01-30T19:13:21;8.60;;;6.28;;
20443;SDS011;10381;53.730;10.010;2024-01-30T19:17:22;9.57;;;6.18;;
20443;SDS011;10381;53.730;10.010;2024-01-30T19:21:24;10.65;;;6.03;;
20443;SDS011;10381;53.730;10.010;2024-01-30T19:25:24;8.85;;;5.88;;
20443;SDS011;10381;53.730;10.010;2024-01-30T19:29:25;8.32;;;5.82;;
20443;SDS011;10381;53.730;10.010;2024-01-30T19:33:25;8.07;;;5.20;;
20443;SDS011;10381;53.730;10.010;2024-01-30T19:37:26;7.00;;;5.60;;
20443;SDS011;10381;53.730;10.010;2024-01-30T19:41:26;8.20;;;6.10;;
20443;SDS011;10381;53.730;10.010;2024-01-30T19:45:27;9.38;;;5.40;;
20443;SDS011;10381;53.730;10.010;2024-01-30T19:49:27;6.27;;;5.10;;
20443;SDS011;10381;53.730;10.010;2024-01-30T19:53:27;5.15;;;4.05;;
20443;SDS011;10381;53.730;10.010;2024-01-30T19:57:28;4.77;;;4.27;;
20443;SDS011;10381;53.730;10.010;2024-01-30T20:01:28;8.43;;;4.35;;
20443;SDS011;10381;53.730;10.010;2024-01-30T20:05:28;6.63;;;3.97;;
20443;SDS011;10381;53.730;10.010;2024-01-30T20:09:28;4.93;;;3.40;;
20443;SDS011;10381;53.730;10.010;2024-01-30T20:13:29;4.53;;;3.50;;
20443;SDS011;10381;53.730;10.010;2024-01-30T20:17:29;8.70;;;3.65;;
20443;SDS011;10381;53.730;10.010;2024-01-30T20:21:31;7.72;;;4.78;;
20443;SDS011;10381;53.730;10.010;2024-01-30T20:25:32;7.50;;;5.13;;
20443;SDS011;10381;53.730;10.010;2024-01-30T20:29:32;4.27;;;3.53;;
20443;SDS011;10381;53.730;10.010;2024-01-30T20:33:33;7.97;;;4.45;;
20443;SDS011;10381;53.730;10.010;2024-01-30T20:37:36;4.68;;;3.42;;
20443;SDS011;10381;53.730;10.010;2024-01-30T20:41:37;6.68;;;4.05;;
20443;SDS011;10381;53.730;10.010;2024-01-30T20:45:38;8.10;;;4.03;;
20443;SDS011;10381;53.730;10.010;2024-01-30T20:49:38;5.70;;;3.37;;
20443;SDS011;10381;53.730;10.010;2024-01-30T20:53:39;4.67;;;3.97;;
20443;SDS011;10381;53.730;10.010;2024-01-30T20:57:40;5.40;;;3.78;;
20443;SDS011;10381;53.730;10.010;2024-01-30T21:01:40;5.60;;;3.80;;
20443;SDS011;10381;53.730;10.010;2024-01-30T21:05:40;7.13;;;3.73;;
20443;SDS011;10381;53.730;10.010;2024-01-30T21:09:41;8.30;;;4.32;;
20443;SDS011;10381;53.730;10.010;2024-01-30T21:13:41;6.43;;;3.90;;
20443;SDS011;10381;53.730;10.010;2024-01-30T21:17:42;6.07;;;3.83;;
20443;SDS011;10381;53.730;10.010;2024-01-30T21:21:42;7.07;;;4.57;;
20443;SDS011;10381;53.730;10.010;2024-01-30T21:25:43;8.68;;;4.63;;
20443;SDS011;10381;53.730;10.010;2024-01-30T21:29:44;7.43;;;5.35;;
20443;SDS011;10381;53.730;10.010;2024-01-30T21:33:44;14.70;;;12.60;;
20443;SDS011;10381;53.730;10.010;2024-01-30T21:37:45;66.10;;;60.50;;
20443;SDS011;10381;53.730;10.010;2024-01-30T21:41:45;108.70;;;98.60;;
20443;SDS011;10381;53.730;10.010;2024-01-30T21:45:45;120.45;;;109.35;;
20443;SDS011;10381;53.730;10.010;2024-01-30T21:49:45;122.73;;;111.93;;
20443;SDS011;10381;53.730;10.010;2024-01-30T21:53:46;125.83;;;114.50;;
20443;SDS011;10381;53.730;10.010;2024-01-30T21:57:46;126.80;;;115.10;;
20443;SDS011;10381;53.730;10.010;2024-01-30T22:01:46;136.93;;;124.40;;
20443;SDS011;10381;53.730;10.010;2024-01-30T22:05:46;126.57;;;115.07;;
20443;SDS011;10381;53.730;10.010;2024-01-30T22:09:47;118.67;;;107.83;;
20443;SDS011;10381;53.730;10.010;2024-01-30T22:13:47;110.93;;;100.67;;
20443;SDS011;10381;53.730;10.010;2024-01-30T22:17:47;103.72;;;93.97;;
20443;SDS011;10381;53.730;10.010;2024-01-30T22:21:48;103.03;;;93.10;;
20443;SDS011;10381;53.730;10.010;2024-01-30T22:25:48;101.67;;;92.23;;
20443;SDS011;10381;53.730;10.010;2024-01-30T22:29:49;107.35;;;96.90;;
20443;SDS011;10381;53.730;10.010;2024-01-30T22:33:49;105.00;;;95.20;;
20443;SDS011;10381;53.730;10.010;2024-01-30T22:37:50;100.32;;;90.90;;
20443;SDS011;10381;53.730;10.010;2024-01-30T22:41:51;99.28;;;89.03;;
20443;SDS011;10381;53.730;10.010;2024-01-30T22:45:51;99.50;;;89.90;;
20443;SDS011;10381;53.730;10.010;2024-01-30T22:49:51;110.07;;;98.87;;
20443;SDS011;10381;53.730;10.010;2024-01-30T22:53:52;123.60;;;104.70;;
20443;SDS011;10381;53.730;10.010;2024-01-30T22:57:52;117.38;;;105.57;;
20443;SDS011;10381;53.730;10.010;2024-01-30T23:01:53;114.57;;;102.63;;
20443;SDS011;10381;53.730;10.010;2024-01-30T23:05:53;113.23;;;101.77;;
20443;SDS011;10381;53.730;10.010;2024-01-30T23:09:54;116.57;;;104.70;;
20443;SDS011;10381;53.730;10.010;2024-01-30T23:13:54;115.15;;;103.80;;
20443;SDS011;10381;53.730;10.010;2024-01-30T23:17:54;112.50;;;101.20;;
20443;SDS011;10381;53.730;10.010;2024-01-30T23:21:55;109.23;;;98.30;;
20443;SDS011;10381;53.730;10.010;2024-01-30T23:25:55;113.47;;;94.43;;